createdAt,value
2023-02-11T00:00:37.921Z,2.81
2023-02-11T00:01:38.049Z,2.77
2023-02-11T00:02:38.437Z,2.81
2023-02-11T00:03:38.893Z,2.82
2023-02-11T00:04:39.019Z,2.88
2023-02-11T00:05:39.503Z,2.87
2023-02-11T00:06:39.703Z,2.84
2023-02-11T00:07:39.976Z,2.84
2023-02-11T00:08:40.194Z,2.85
2023-02-11T00:09:40.398Z,2.85
2023-02-11T00:10:40.773Z,2.85
2023-02-11T00:11:41.015Z,2.82
2023-02-11T00:12:41.306Z,2.85
2023-02-11T00:13:41.506Z,2.88
2023-02-11T00:14:41.907Z,2.89
2023-02-11T00:15:42.128Z,2.85
2023-02-11T00:16:42.452Z,2.85
2023-02-11T00:17:42.695Z,2.84
2023-02-11T00:18:42.971Z,2.81
2023-02-11T00:19:43.094Z,2.81
2023-02-11T00:20:43.455Z,2.82
2023-02-11T00:21:43.818Z,2.81
2023-02-11T00:22:44.058Z,2.76
2023-02-11T00:23:44.438Z,2.70
2023-02-11T00:24:44.638Z,2.66
2023-02-11T00:25:44.964Z,2.70
2023-02-11T00:26:45.290Z,2.67
2023-02-11T00:27:45.592Z,2.66
2023-02-11T00:28:45.848Z,2.69
2023-02-11T00:29:46.279Z,2.69
2023-02-11T00:30:46.595Z,2.73
2023-02-11T00:31:46.850Z,2.69
2023-02-11T00:32:47.002Z,2.69
2023-02-11T00:33:47.224Z,2.76
2023-02-11T00:34:47.551Z,2.76
2023-02-11T00:35:48.080Z,2.74
2023-02-11T00:36:48.254Z,2.73
2023-02-11T00:37:48.470Z,2.77
2023-02-11T00:38:48.734Z,2.79
2023-02-11T00:39:49.078Z,2.81
2023-02-11T00:40:49.493Z,2.74
2023-02-11T00:41:49.651Z,2.76
2023-02-11T00:42:49.976Z,2.73
2023-02-11T00:43:50.282Z,2.59
2023-02-11T00:44:50.592Z,2.59
2023-02-11T00:45:51.225Z,2.66
2023-02-11T00:46:51.259Z,2.63
2023-02-11T00:47:51.441Z,2.69
2023-02-11T00:48:51.877Z,2.67
2023-02-11T00:49:52.064Z,2.74
2023-02-11T00:50:52.417Z,2.66
2023-02-11T00:51:52.755Z,2.64
2023-02-11T00:52:53.017Z,2.69
2023-02-11T00:53:53.333Z,2.71
2023-02-11T00:54:53.712Z,2.77
2023-02-11T00:55:53.927Z,2.81
2023-02-11T00:56:54.252Z,2.81
2023-02-11T00:57:54.555Z,2.76
2023-02-11T00:58:54.901Z,2.82
2023-02-11T00:59:55.217Z,2.77
2023-02-11T01:00:55.539Z,2.76
2023-02-11T01:01:55.828Z,2.77
2023-02-11T01:02:56.191Z,2.76
2023-02-11T01:03:56.522Z,2.74
2023-02-11T01:04:56.827Z,2.76
2023-02-11T01:05:57.002Z,2.79
2023-02-11T01:06:57.358Z,2.74
2023-02-11T01:07:58.047Z,2.77
2023-02-11T01:08:57.935Z,2.77
2023-02-11T01:09:58.259Z,2.79
2023-02-11T01:10:58.601Z,2.81
2023-02-11T01:11:58.804Z,2.82
2023-02-11T01:12:59.169Z,2.81
2023-02-11T01:13:59.414Z,2.85
2023-02-11T01:14:59.806Z,2.81
2023-02-11T01:16:00.053Z,2.84
2023-02-11T01:17:00.345Z,2.88
2023-02-11T01:18:00.601Z,2.88
2023-02-11T01:19:00.923Z,2.91
2023-02-11T01:20:01.218Z,2.98
2023-02-11T01:21:01.608Z,3.06
2023-02-11T01:22:01.821Z,3.05
2023-02-11T01:23:02.197Z,3.06
2023-02-11T01:24:02.574Z,3.13
2023-02-11T01:25:02.788Z,3.09
2023-02-11T01:26:03.203Z,3.09
2023-02-11T01:27:03.474Z,2.98
2023-02-11T01:28:03.771Z,2.98
2023-02-11T01:29:03.980Z,3.02
2023-02-11T01:30:04.282Z,2.95
2023-02-11T01:31:04.701Z,2.95
2023-02-11T01:32:04.894Z,2.91
2023-02-11T01:33:05.181Z,2.88
2023-02-11T01:34:05.373Z,2.82
2023-02-11T01:35:05.685Z,2.79
2023-02-11T01:36:06.000Z,2.79
2023-02-11T01:37:06.365Z,2.71
2023-02-11T01:38:06.590Z,2.69
2023-02-11T01:39:06.814Z,2.64
2023-02-11T01:40:07.037Z,2.66
2023-02-11T01:41:07.396Z,2.61
2023-02-11T01:42:07.750Z,2.59
2023-02-11T01:43:08.060Z,2.63
2023-02-11T01:44:08.334Z,2.64
2023-02-11T01:45:08.586Z,2.64
2023-02-11T01:46:08.789Z,2.66
2023-02-11T01:47:09.098Z,2.59
2023-02-11T01:48:09.405Z,2.58
2023-02-11T01:49:09.759Z,2.55
2023-02-11T01:50:09.966Z,2.56
2023-02-11T01:51:10.288Z,2.61
2023-02-11T01:52:10.596Z,2.55
2023-02-11T01:53:10.946Z,2.56
2023-02-11T01:54:11.358Z,2.58
2023-02-11T01:55:11.579Z,2.55
2023-02-11T01:56:11.766Z,2.56
2023-02-11T01:57:12.049Z,2.63
2023-02-11T01:58:12.341Z,2.64
2023-02-11T01:59:12.719Z,2.64
2023-02-11T02:00:13.096Z,2.61
2023-02-11T02:01:13.830Z,2.63
2023-02-11T02:02:13.824Z,2.63
2023-02-11T02:03:13.918Z,2.56
2023-02-11T02:04:14.097Z,2.56
2023-02-11T02:05:14.469Z,2.64
2023-02-11T02:06:14.776Z,2.67
2023-02-11T02:07:15.143Z,2.66
2023-02-11T02:08:15.313Z,2.63
2023-02-11T02:09:15.695Z,2.64
2023-02-11T02:10:16.015Z,2.67
2023-02-11T02:11:16.406Z,2.59
2023-02-11T02:12:16.599Z,2.66
2023-02-11T02:13:16.924Z,2.66
2023-02-11T02:14:17.254Z,2.64
2023-02-11T02:15:17.500Z,2.69
2023-02-11T02:16:17.817Z,2.66
2023-02-11T02:17:18.072Z,2.64
2023-02-11T02:18:18.402Z,2.61
2023-02-11T02:19:18.626Z,2.61
2023-02-11T02:20:18.799Z,2.58
2023-02-11T02:21:19.157Z,2.64
2023-02-11T02:22:19.512Z,2.64
2023-02-11T02:23:19.726Z,2.58
2023-02-11T02:24:20.035Z,2.59
2023-02-11T02:25:20.444Z,2.59
2023-02-11T02:26:20.691Z,2.56
2023-02-11T02:27:21.058Z,2.53
2023-02-11T02:28:21.447Z,2.58
2023-02-11T02:29:21.654Z,2.55
2023-02-11T02:30:21.985Z,2.49
2023-02-11T02:31:22.359Z,2.52
2023-02-11T02:32:22.593Z,2.45
2023-02-11T02:33:23.295Z,2.44
2023-02-11T02:34:23.212Z,2.48
2023-02-11T02:35:23.544Z,2.44
2023-02-11T02:36:23.721Z,2.49
2023-02-11T02:37:24.081Z,2.51
2023-02-11T02:38:24.290Z,2.53
2023-02-11T02:39:24.588Z,2.55
2023-02-11T02:40:24.842Z,2.53
2023-02-11T02:41:25.064Z,2.55
2023-02-11T02:42:25.363Z,2.51
2023-02-11T02:43:25.755Z,2.49
2023-02-11T02:44:26.002Z,2.48
2023-02-11T02:45:26.387Z,2.51
2023-02-11T02:46:26.702Z,2.53
2023-02-11T02:47:26.893Z,2.55
2023-02-11T02:48:27.243Z,2.55
2023-02-11T02:49:27.525Z,2.53
2023-02-11T02:50:27.798Z,2.58
2023-02-11T02:51:28.094Z,2.53
2023-02-11T02:52:28.475Z,2.56
2023-02-11T02:53:28.660Z,2.52
2023-02-11T02:54:28.939Z,2.55
2023-02-11T02:55:29.275Z,2.58
2023-02-11T02:56:29.483Z,2.53
2023-02-11T02:57:29.839Z,2.55
2023-02-11T02:58:30.198Z,2.56
2023-02-11T02:59:30.398Z,2.55
2023-02-11T03:00:30.739Z,2.52
2023-02-11T03:01:31.463Z,2.56
2023-02-11T03:02:31.382Z,2.56
2023-02-11T03:03:31.760Z,2.56
2023-02-11T03:04:31.986Z,2.56
2023-02-11T03:05:32.296Z,2.56
2023-02-11T03:06:32.633Z,2.61
2023-02-11T03:07:32.941Z,2.59
2023-02-11T03:08:33.255Z,2.61
2023-02-11T03:09:33.617Z,2.63
2023-02-11T03:10:33.956Z,2.56
2023-02-11T03:11:34.149Z,2.58
2023-02-11T03:12:34.359Z,2.53
2023-02-11T03:13:34.721Z,2.55
2023-02-11T03:14:35.031Z,2.52
2023-02-11T03:15:35.748Z,2.52
2023-02-11T03:16:35.683Z,2.46
2023-02-11T03:17:36.011Z,2.52
2023-02-11T03:18:36.337Z,2.38
2023-02-11T03:19:36.664Z,2.37
2023-02-11T03:20:37.052Z,2.33
2023-02-11T03:21:37.238Z,2.35
2023-02-11T03:22:37.594Z,2.33
2023-02-11T03:23:37.917Z,2.34
2023-02-11T03:24:38.129Z,2.28
2023-02-11T03:25:38.513Z,2.38
2023-02-11T03:26:38.718Z,2.40
2023-02-11T03:27:39.115Z,2.35
2023-02-11T03:28:39.323Z,2.34
2023-02-11T03:29:39.538Z,2.37
2023-02-11T03:30:39.868Z,2.45
2023-02-11T03:31:40.344Z,2.45
2023-02-11T03:32:40.393Z,2.44
2023-02-11T03:33:40.765Z,2.51
2023-02-11T03:34:41.073Z,2.49
2023-02-11T03:35:41.442Z,2.44
2023-02-11T03:36:41.791Z,2.48
2023-02-11T03:37:42.000Z,2.52
2023-02-11T03:38:42.329Z,2.56
2023-02-11T03:39:42.647Z,2.52
2023-02-11T03:40:42.972Z,2.59
2023-02-11T03:41:43.318Z,2.61
2023-02-11T03:42:43.533Z,2.66
2023-02-11T03:43:43.916Z,2.66
2023-02-11T03:44:44.114Z,2.63
2023-02-11T03:45:44.523Z,2.61
2023-02-11T03:46:44.687Z,2.58
2023-02-11T03:47:45.042Z,2.55
2023-02-11T03:48:45.405Z,2.49
2023-02-11T03:49:45.702Z,2.45
2023-02-11T03:50:46.035Z,2.49
2023-02-11T03:51:46.461Z,2.46
2023-02-11T03:52:46.689Z,2.55
2023-02-11T03:53:47.027Z,2.53
2023-02-11T03:54:47.254Z,2.55
2023-02-11T03:55:47.967Z,2.63
2023-02-11T03:56:47.886Z,2.53
2023-02-11T03:57:48.196Z,2.56
2023-02-11T03:58:48.485Z,2.46
2023-02-11T03:59:48.850Z,2.48
2023-02-11T04:00:49.061Z,2.44
2023-02-11T04:01:49.456Z,2.41
2023-02-11T04:02:49.680Z,2.45
2023-02-11T04:03:49.874Z,2.48
2023-02-11T04:04:50.228Z,2.49
2023-02-11T04:05:50.881Z,2.45
2023-02-11T04:06:50.856Z,2.48
2023-02-11T04:07:51.236Z,2.48
2023-02-11T04:08:51.453Z,2.49
2023-02-11T04:09:51.698Z,2.48
2023-02-11T04:10:52.002Z,2.51
2023-02-11T04:11:52.332Z,2.48
2023-02-11T04:12:52.545Z,2.51
2023-02-11T04:13:52.833Z,2.53
2023-02-11T04:14:53.115Z,2.58
2023-02-11T04:15:53.915Z,2.58
2023-02-11T04:16:54.202Z,2.58
2023-02-11T04:17:54.050Z,2.56
2023-02-11T04:18:54.276Z,2.61
2023-02-11T04:19:54.592Z,2.64
2023-02-11T04:20:54.934Z,2.63
2023-02-11T04:21:55.222Z,2.59
2023-02-11T04:22:55.414Z,2.63
2023-02-11T04:23:55.769Z,2.64
2023-02-11T04:24:55.964Z,2.61
2023-02-11T04:25:56.332Z,2.59
2023-02-11T04:26:56.637Z,2.61
2023-02-11T04:27:57.119Z,2.61
2023-02-11T04:28:57.236Z,2.56
2023-02-11T04:29:57.566Z,2.58
2023-02-11T04:30:58.915Z,2.63
2023-02-11T04:31:58.179Z,2.61
2023-02-11T04:32:58.368Z,2.67
2023-02-11T04:33:58.718Z,2.63
2023-02-11T04:34:58.927Z,2.67
2023-02-11T04:35:59.244Z,2.61
2023-02-11T04:36:59.556Z,2.63
2023-02-11T04:37:59.944Z,2.55
2023-02-11T04:39:00.138Z,2.59
2023-02-11T04:40:00.463Z,2.64
2023-02-11T04:41:00.697Z,2.64
2023-02-11T04:42:01.003Z,2.58
2023-02-11T04:43:01.713Z,2.56
2023-02-11T04:44:01.622Z,2.56
2023-02-11T04:45:01.933Z,2.59
2023-02-11T04:46:02.162Z,2.53
2023-02-11T04:47:02.436Z,2.55
2023-02-11T04:48:02.838Z,2.52
2023-02-11T04:49:03.005Z,2.56
2023-02-11T04:50:03.352Z,2.55
2023-02-11T04:51:03.564Z,2.55
2023-02-11T04:52:03.878Z,2.52
2023-02-11T04:53:04.175Z,2.53
2023-02-11T04:54:04.544Z,2.53
2023-02-11T04:55:04.850Z,2.49
2023-02-11T04:56:05.258Z,2.49
2023-02-11T04:57:05.459Z,2.49
2023-02-11T04:58:05.742Z,2.52
2023-02-11T04:59:06.063Z,2.53
2023-02-11T05:00:06.348Z,2.48
2023-02-11T05:01:06.566Z,2.48
2023-02-11T05:02:06.861Z,2.46
2023-02-11T05:03:07.174Z,2.58
2023-02-11T05:04:07.528Z,2.61
2023-02-11T05:05:07.718Z,2.64
2023-02-11T05:06:08.075Z,2.59
2023-02-11T05:07:08.360Z,2.56
2023-02-11T05:08:08.653Z,2.56
2023-02-11T05:09:09.016Z,2.56
2023-02-11T05:10:09.294Z,2.59
2023-02-11T05:11:09.625Z,2.55
2023-02-11T05:12:09.850Z,2.55
2023-02-11T05:13:10.030Z,2.55
2023-02-11T05:14:10.405Z,2.45
2023-02-11T05:15:10.570Z,2.41
2023-02-11T05:16:10.976Z,2.44
2023-02-11T05:17:11.178Z,2.33
2023-02-11T05:18:11.538Z,2.33
2023-02-11T05:19:11.753Z,2.22
2023-02-11T05:20:12.083Z,2.17
2023-02-11T05:21:12.385Z,2.16
2023-02-11T05:22:12.713Z,2.16
2023-02-11T05:23:13.018Z,2.13
2023-02-11T05:24:13.339Z,2.06
2023-02-11T05:25:13.698Z,2.04
2023-02-11T05:26:13.891Z,2.02
2023-02-11T05:27:14.252Z,2.10
2023-02-11T05:28:14.612Z,2.12
2023-02-11T05:29:14.679Z,2.12
2023-02-11T05:30:15.116Z,2.06
2023-02-11T05:31:15.368Z,2.06
2023-02-11T05:32:15.623Z,2.09
2023-02-11T05:33:15.798Z,2.12
2023-02-11T05:34:16.220Z,2.17
2023-02-11T05:35:16.413Z,2.22
2023-02-11T05:36:16.733Z,2.26
2023-02-11T05:37:17.107Z,2.27
2023-02-11T05:38:17.356Z,2.35
2023-02-11T05:39:17.544Z,2.26
2023-02-11T05:40:17.896Z,2.17
2023-02-11T05:41:18.159Z,2.15
2023-02-11T05:42:18.365Z,2.16
2023-02-11T05:43:18.677Z,2.15
2023-02-11T05:44:19.044Z,2.15
2023-02-11T05:45:19.788Z,2.12
2023-02-11T05:46:19.691Z,2.13
2023-02-11T05:47:19.876Z,2.09
2023-02-11T05:48:20.226Z,2.02
2023-02-11T05:49:20.396Z,1.97
2023-02-11T05:50:20.780Z,1.97
2023-02-11T05:51:21.120Z,1.93
2023-02-11T05:52:21.426Z,1.93
2023-02-11T05:53:21.710Z,1.90
2023-02-11T05:54:22.082Z,1.90
2023-02-11T05:55:22.393Z,1.83
2023-02-11T05:56:22.713Z,1.91
2023-02-11T05:57:23.030Z,1.87
2023-02-11T05:58:23.356Z,1.90
2023-02-11T05:59:23.674Z,1.91
2023-02-11T06:00:24.014Z,1.89
2023-02-11T06:01:24.564Z,1.82
2023-02-11T06:02:24.706Z,1.87
2023-02-11T06:03:24.906Z,1.91
2023-02-11T06:04:25.149Z,1.83
2023-02-11T06:05:25.480Z,1.89
2023-02-11T06:06:25.839Z,1.87
2023-02-11T06:07:26.108Z,1.83
2023-02-11T06:08:26.427Z,1.82
2023-02-11T06:09:26.599Z,1.82
2023-02-11T06:10:26.934Z,1.85
2023-02-11T06:11:27.184Z,1.79
2023-02-11T06:12:27.496Z,1.83
2023-02-11T06:13:27.697Z,1.87
2023-02-11T06:14:28.000Z,1.87
2023-02-11T06:15:28.237Z,1.87
2023-02-11T06:16:28.746Z,1.91
2023-02-11T06:17:28.810Z,1.98
2023-02-11T06:18:29.039Z,1.97
2023-02-11T06:19:29.383Z,1.97
2023-02-11T06:20:29.552Z,1.98
2023-02-11T06:21:42.832Z,2.01
2023-02-11T06:22:31.097Z,2.02
2023-02-11T06:23:30.666Z,2.01
2023-02-11T06:24:54.690Z,2.04
2023-02-11T06:25:31.846Z,1.99
2023-02-11T06:26:31.153Z,1.97
2023-02-11T06:27:31.398Z,2.01
2023-02-11T06:28:31.726Z,1.97
2023-02-11T06:29:31.918Z,2.02
2023-02-11T06:30:32.174Z,2.04
2023-02-11T06:31:32.519Z,1.99
2023-02-11T06:32:43.899Z,2.01
2023-02-11T06:33:34.031Z,2.01
2023-02-11T06:34:33.309Z,2.08
2023-02-11T06:35:33.539Z,2.10
2023-02-11T06:36:33.817Z,2.08
2023-02-11T06:37:34.120Z,2.16
2023-02-11T06:38:34.386Z,2.15
2023-02-11T06:39:35.548Z,2.15
2023-02-11T06:40:35.007Z,2.16
2023-02-11T06:41:35.221Z,2.12
2023-02-11T06:42:35.556Z,2.13
2023-02-11T06:43:35.787Z,2.12
2023-02-11T06:44:36.095Z,2.16
2023-02-11T06:45:36.350Z,2.19
2023-02-11T06:46:36.754Z,2.20
2023-02-11T06:47:36.974Z,2.19
2023-02-11T06:48:37.248Z,2.23
2023-02-11T06:49:37.447Z,2.27
2023-02-11T06:50:37.773Z,2.23
2023-02-11T06:51:38.040Z,2.28
2023-02-11T06:52:38.281Z,2.23
2023-02-11T06:53:38.594Z,2.26
2023-02-11T06:54:38.832Z,2.28
2023-02-11T06:55:39.088Z,2.30
2023-02-11T06:56:39.424Z,2.23
2023-02-11T06:57:39.635Z,2.28
2023-02-11T06:58:39.920Z,2.30
2023-02-11T06:59:40.164Z,2.30
2023-02-11T07:00:40.522Z,2.28
2023-02-11T07:01:40.803Z,2.28
2023-02-11T07:02:41.267Z,2.30
2023-02-11T07:03:41.338Z,2.33
2023-02-11T07:04:41.648Z,2.31
2023-02-11T07:05:41.911Z,2.33
2023-02-11T07:06:42.229Z,2.40
2023-02-11T07:07:42.499Z,2.35
2023-02-11T07:08:42.781Z,2.40
2023-02-11T07:09:43.063Z,2.37
2023-02-11T07:10:43.344Z,2.37
2023-02-11T07:11:43.604Z,2.35
2023-02-11T07:12:43.919Z,2.35
2023-02-11T07:13:44.164Z,2.33
2023-02-11T07:14:44.445Z,2.40
2023-02-11T07:15:44.762Z,2.40
2023-02-11T07:16:45.052Z,2.44
2023-02-11T07:17:45.284Z,2.44
2023-02-11T07:18:45.574Z,2.44
2023-02-11T07:19:45.844Z,2.51
2023-02-11T07:20:46.127Z,2.48
2023-02-11T07:21:46.432Z,2.51
2023-02-11T07:22:46.743Z,2.53
2023-02-11T07:23:46.999Z,2.52
2023-02-11T07:24:47.318Z,2.55
2023-02-11T07:25:47.743Z,2.56
2023-02-11T07:26:47.957Z,2.59
2023-02-11T07:27:48.285Z,2.55
2023-02-11T07:28:48.528Z,2.59
2023-02-11T07:29:48.786Z,2.58
2023-02-11T07:30:49.120Z,2.61
2023-02-11T07:31:49.386Z,2.61
2023-02-11T07:32:49.744Z,2.59
2023-02-11T07:33:50.012Z,2.63
2023-02-11T07:34:50.309Z,2.73
2023-02-11T07:35:50.859Z,2.74
2023-02-11T07:36:50.975Z,2.82
2023-02-11T07:37:51.187Z,2.85
2023-02-11T07:38:51.459Z,2.88
2023-02-11T07:39:51.715Z,2.84
2023-02-11T07:40:52.042Z,2.77
2023-02-11T07:41:52.353Z,2.70
2023-02-11T07:42:52.638Z,2.64
2023-02-11T07:43:52.861Z,2.64
2023-02-11T07:44:53.190Z,2.66
2023-02-11T07:45:53.409Z,2.73
2023-02-11T07:46:53.796Z,2.97
2023-02-11T07:47:53.872Z,2.98
2023-02-11T07:48:54.146Z,3.05
2023-02-11T07:49:56.564Z,3.06
2023-02-11T07:50:54.725Z,3.09
2023-02-11T07:51:55.063Z,3.10
2023-02-11T07:52:55.363Z,3.09
2023-02-11T07:53:55.600Z,3.05
2023-02-11T07:54:55.907Z,3.09
2023-02-11T07:55:56.174Z,3.23
2023-02-11T07:56:56.447Z,3.31
2023-02-11T07:57:56.731Z,3.43
2023-02-11T07:58:57.078Z,3.46
2023-02-11T07:59:57.364Z,3.44
2023-02-11T08:00:57.689Z,3.47
2023-02-11T08:01:58.008Z,3.52
2023-02-11T08:02:58.271Z,3.53
2023-02-11T08:03:58.548Z,3.61
2023-02-11T08:04:58.826Z,3.72
2023-02-11T08:05:59.184Z,3.72
2023-02-11T08:06:59.441Z,3.82
2023-02-11T08:07:59.660Z,3.88
2023-02-11T08:08:59.998Z,3.80
2023-02-11T08:10:00.291Z,3.88
2023-02-11T08:11:00.578Z,4.04
2023-02-11T08:12:00.909Z,4.08
2023-02-11T08:13:01.172Z,4.10
2023-02-11T08:14:01.450Z,4.03
2023-02-11T08:15:01.738Z,4.06
2023-02-11T08:16:01.994Z,4.12
2023-02-11T08:17:02.310Z,4.25
2023-02-11T08:18:02.560Z,4.29
2023-02-11T08:19:02.920Z,4.34
2023-02-11T08:20:03.124Z,4.32
2023-02-11T08:21:03.505Z,4.25
2023-02-11T08:22:03.773Z,4.25
2023-02-11T08:23:04.025Z,4.33
2023-02-11T08:24:04.812Z,4.34
2023-02-11T08:25:11.935Z,4.34
2023-02-11T08:26:04.844Z,4.43
2023-02-11T08:27:05.141Z,4.51
2023-02-11T08:28:05.406Z,4.61
2023-02-11T08:29:05.666Z,4.77
2023-02-11T08:30:05.979Z,4.86
2023-02-11T08:31:06.287Z,4.76
2023-02-11T08:32:06.579Z,4.89
2023-02-11T08:33:06.895Z,4.95
2023-02-11T08:34:07.110Z,4.99
2023-02-11T08:35:07.430Z,4.96
2023-02-11T08:36:07.688Z,4.83
2023-02-11T08:37:07.948Z,4.80
2023-02-11T08:38:08.226Z,4.70
2023-02-11T08:39:18.760Z,4.76
2023-02-11T08:40:09.781Z,4.76
2023-02-11T08:41:09.089Z,4.72
2023-02-11T08:42:09.359Z,4.59
2023-02-11T08:43:09.667Z,4.64
2023-02-11T08:44:09.962Z,4.70
2023-02-11T08:45:10.258Z,4.73
2023-02-11T08:46:10.596Z,4.77
2023-02-11T08:47:10.858Z,4.84
2023-02-11T08:48:11.128Z,4.83
2023-02-11T08:49:11.444Z,4.86
2023-02-11T08:50:11.736Z,4.96
2023-02-11T08:51:12.020Z,5.05
2023-02-11T08:52:12.301Z,5.05
2023-02-11T08:53:12.565Z,4.96
2023-02-11T08:54:12.890Z,4.89
2023-02-11T08:55:13.239Z,4.98
2023-02-11T08:56:13.705Z,5.02
2023-02-11T08:57:13.781Z,5.09
2023-02-11T08:58:14.067Z,5.05
2023-02-11T08:59:14.366Z,4.99
2023-02-11T09:00:14.708Z,5.09
2023-02-11T09:01:15.063Z,5.14
2023-02-11T09:02:15.272Z,5.30
2023-02-11T09:03:15.529Z,5.45
2023-02-11T09:04:15.793Z,5.28
2023-02-11T09:05:16.072Z,5.13
2023-02-11T09:06:16.439Z,5.10
2023-02-11T09:07:16.722Z,5.23
2023-02-11T09:08:17.025Z,5.23
2023-02-11T09:09:17.235Z,5.31
2023-02-11T09:10:17.545Z,5.32
2023-02-11T09:11:17.773Z,5.35
2023-02-11T09:12:18.069Z,5.46
2023-02-11T09:13:18.387Z,5.43
2023-02-11T09:14:18.651Z,5.49
2023-02-11T09:15:18.985Z,5.48
2023-02-11T09:16:19.300Z,5.46
2023-02-11T09:17:20.383Z,5.48
2023-02-11T09:18:19.805Z,5.52
2023-02-11T09:19:20.128Z,5.56
2023-02-11T09:20:20.390Z,5.59
2023-02-11T09:21:20.741Z,5.50
2023-02-11T09:22:21.004Z,5.45
2023-02-11T09:23:21.320Z,5.48
2023-02-11T09:24:21.602Z,5.64
2023-02-11T09:25:22.736Z,5.75
2023-02-11T09:26:22.172Z,5.88
2023-02-11T09:27:22.477Z,6.00
2023-02-11T09:28:22.773Z,5.98
2023-02-11T09:29:23.075Z,6.06
2023-02-11T09:30:23.524Z,6.03
2023-02-11T09:31:23.854Z,6.07
2023-02-11T09:32:23.964Z,6.01
2023-02-11T09:33:24.202Z,5.81
2023-02-11T09:34:24.492Z,5.86
2023-02-11T09:35:24.793Z,6.00
2023-02-11T09:36:25.120Z,6.22
2023-02-11T09:37:25.424Z,6.21
2023-02-11T09:38:25.691Z,6.28
2023-02-11T09:39:25.929Z,6.26
2023-02-11T09:40:26.231Z,6.32
2023-02-11T09:41:26.503Z,6.43
2023-02-11T09:42:26.765Z,6.58
2023-02-11T09:43:27.088Z,6.61
2023-02-11T09:44:27.365Z,6.65
2023-02-11T09:45:27.676Z,6.72
2023-02-11T09:46:28.017Z,6.77
2023-02-11T09:47:28.302Z,6.90
2023-02-11T09:48:28.563Z,6.97
2023-02-11T09:49:28.863Z,7.05
2023-02-11T09:50:29.150Z,7.01
2023-02-11T09:51:29.433Z,7.13
2023-02-11T09:52:29.690Z,7.13
2023-02-11T09:53:30.068Z,7.02
2023-02-11T09:54:30.296Z,6.94
2023-02-11T09:55:30.578Z,6.99
2023-02-11T09:56:30.831Z,7.12
2023-02-11T09:57:31.107Z,7.22
2023-02-11T09:58:31.430Z,7.29
2023-02-11T09:59:31.696Z,7.37
2023-02-11T10:00:31.943Z,7.41
2023-02-11T10:01:32.244Z,7.53
2023-02-11T10:02:32.506Z,7.34
2023-02-11T10:03:32.832Z,7.23
2023-02-11T10:04:33.553Z,7.13
2023-02-11T10:05:33.353Z,7.05
2023-02-11T10:06:33.584Z,7.08
2023-02-11T10:07:33.906Z,7.23
2023-02-11T10:08:34.170Z,7.38
2023-02-11T10:09:34.451Z,7.47
2023-02-11T10:10:34.708Z,7.58
2023-02-11T10:11:34.978Z,7.71
2023-02-11T10:12:35.260Z,7.84
2023-02-11T10:13:35.602Z,7.94
2023-02-11T10:14:35.872Z,8.00
2023-02-11T10:15:36.210Z,7.92
2023-02-11T10:16:36.419Z,7.97
2023-02-11T10:17:36.873Z,7.93
2023-02-11T10:18:37.026Z,7.93
2023-02-11T10:19:37.322Z,7.89
2023-02-11T10:20:37.535Z,7.90
2023-02-11T10:21:37.862Z,7.81
2023-02-11T10:22:38.142Z,7.89
2023-02-11T10:23:38.543Z,7.92
2023-02-11T10:24:38.751Z,8.07
2023-02-11T10:25:39.056Z,8.14
2023-02-11T10:26:39.391Z,8.26
2023-02-11T10:27:39.719Z,8.32
2023-02-11T10:28:39.939Z,8.45
2023-02-11T10:29:40.164Z,8.39
2023-02-11T10:30:40.474Z,8.32
2023-02-11T10:31:40.842Z,8.39
2023-02-11T10:32:41.010Z,8.40
2023-02-11T10:33:41.332Z,8.53
2023-02-11T10:34:41.550Z,8.57
2023-02-11T10:35:41.860Z,8.62
2023-02-11T10:36:42.118Z,8.42
2023-02-11T10:37:44.471Z,8.26
2023-02-11T10:38:42.832Z,8.04
2023-02-11T10:39:43.000Z,8.12
2023-02-11T10:40:43.342Z,8.21
2023-02-11T10:41:43.647Z,8.28
2023-02-11T10:42:43.915Z,8.44
2023-02-11T10:43:44.311Z,8.55
2023-02-11T10:44:44.496Z,8.40
2023-02-11T10:45:44.784Z,8.44
2023-02-11T10:46:45.071Z,8.58
2023-02-11T10:47:45.408Z,8.71
2023-02-11T10:48:45.624Z,8.81
2023-02-11T10:49:45.944Z,8.93
2023-02-11T10:50:46.215Z,8.99
2023-02-11T10:51:46.464Z,9.09
2023-02-11T10:52:46.775Z,9.21
2023-02-11T10:53:47.060Z,9.30
2023-02-11T10:54:47.354Z,9.42
2023-02-11T10:55:47.694Z,9.45
2023-02-11T10:56:47.923Z,9.43
2023-02-11T10:57:48.249Z,9.56
2023-02-11T10:58:48.494Z,9.66
2023-02-11T10:59:48.858Z,9.70
2023-02-11T11:00:49.553Z,9.75
2023-02-11T11:01:49.574Z,9.99
2023-02-11T11:02:49.731Z,10.19
2023-02-11T11:03:50.110Z,10.32
2023-02-11T11:04:50.494Z,10.34
2023-02-11T11:05:50.777Z,10.52
2023-02-11T11:06:51.096Z,10.83
2023-02-11T11:07:51.426Z,11.07
2023-02-11T11:08:51.690Z,11.38
2023-02-11T11:09:52.066Z,11.80
2023-02-11T11:10:52.601Z,12.13
2023-02-11T11:11:52.666Z,12.23
2023-02-11T11:12:52.920Z,12.33
2023-02-11T11:13:53.252Z,12.41
2023-02-11T11:14:53.480Z,12.54
2023-02-11T11:15:53.788Z,12.46
2023-02-11T11:16:54.104Z,12.24
2023-02-11T11:18:01.869Z,12.09
2023-02-11T11:18:55.684Z,12.05
2023-02-11T11:19:54.993Z,12.12
2023-02-11T11:20:55.285Z,12.21
2023-02-11T11:21:55.584Z,12.26
2023-02-11T11:22:55.881Z,12.27
2023-02-11T11:23:56.191Z,12.09
2023-02-11T11:24:56.551Z,11.80
2023-02-11T11:25:56.787Z,11.71
2023-02-11T11:26:57.092Z,11.68
2023-02-11T11:27:57.413Z,11.38
2023-02-11T11:28:57.655Z,11.41
2023-02-11T11:29:57.948Z,11.49
2023-02-11T11:30:58.310Z,11.61
2023-02-11T11:31:58.598Z,11.78
2023-02-11T11:32:58.782Z,11.83
2023-02-11T11:33:59.097Z,11.75
2023-02-11T11:34:59.358Z,11.80
2023-02-11T11:35:59.713Z,11.89
2023-02-11T11:37:00.174Z,12.15
2023-02-11T11:38:01.939Z,12.27
2023-02-11T11:39:00.568Z,12.13
2023-02-11T11:40:00.843Z,12.02
2023-02-11T11:41:01.148Z,11.75
2023-02-11T11:42:01.441Z,11.78
2023-02-11T11:43:01.742Z,11.65
2023-02-11T11:44:02.051Z,11.74
2023-02-11T11:45:02.318Z,11.74
2023-02-11T11:46:02.689Z,11.68
2023-02-11T11:47:02.933Z,11.74
2023-02-11T11:48:03.253Z,11.82
2023-02-11T11:49:03.511Z,11.77
2023-02-11T11:50:03.832Z,11.89
2023-02-11T11:51:04.110Z,12.15
2023-02-11T11:52:04.369Z,12.56
2023-02-11T11:53:04.662Z,12.62
2023-02-11T11:54:04.950Z,12.44
2023-02-11T11:55:05.202Z,12.29
2023-02-11T11:56:05.565Z,12.27
2023-02-11T11:57:05.828Z,12.12
2023-02-11T11:58:06.154Z,12.04
2023-02-11T11:59:06.435Z,12.06
2023-02-11T12:00:06.714Z,12.02
2023-02-11T12:01:07.068Z,11.96
2023-02-11T12:02:08.598Z,11.97
2023-02-11T12:03:07.707Z,12.12
2023-02-11T12:04:07.953Z,12.24
2023-02-11T12:05:08.222Z,12.24
2023-02-11T12:06:08.544Z,12.42
2023-02-11T12:07:08.762Z,12.60
2023-02-11T12:08:09.093Z,12.70
2023-02-11T12:09:09.352Z,12.85
2023-02-11T12:10:09.706Z,12.87
2023-02-11T12:11:10.024Z,12.62
2023-02-11T12:12:10.260Z,12.67
2023-02-11T12:13:10.553Z,12.87
2023-02-11T12:14:10.848Z,12.81
2023-02-11T12:15:11.132Z,12.85
2023-02-11T12:16:11.837Z,12.92
2023-02-11T12:17:11.715Z,13.00
2023-02-11T12:18:12.020Z,13.11
2023-02-11T12:19:12.317Z,13.49
2023-02-11T12:20:12.554Z,13.77
2023-02-11T12:21:12.866Z,13.77
2023-02-11T12:22:13.147Z,13.71
2023-02-11T12:23:13.559Z,13.69
2023-02-11T12:24:16.271Z,13.76
2023-02-11T12:25:13.956Z,13.95
2023-02-11T12:26:14.239Z,14.24
2023-02-11T12:27:14.561Z,13.96
2023-02-11T12:28:14.975Z,13.73
2023-02-11T12:29:15.078Z,14.04
2023-02-11T12:30:15.416Z,14.31
2023-02-11T12:31:15.740Z,13.98
2023-02-11T12:32:16.128Z,13.70
2023-02-11T12:33:16.235Z,13.61
2023-02-11T12:34:16.516Z,12.75
2023-02-11T12:35:16.854Z,12.31
2023-02-11T12:36:17.076Z,11.90
2023-02-11T12:37:17.386Z,11.56
2023-02-11T12:38:17.724Z,11.68
2023-02-11T12:39:17.963Z,11.65
2023-02-11T12:40:18.261Z,11.78
2023-02-11T12:41:18.638Z,11.71
2023-02-11T12:42:18.740Z,11.65
2023-02-11T12:43:19.065Z,11.35
2023-02-11T12:44:19.335Z,11.19
2023-02-11T12:45:19.587Z,11.02
2023-02-11T12:46:19.923Z,10.92
2023-02-11T12:47:20.229Z,10.80
2023-02-11T12:48:20.489Z,10.74
2023-02-11T12:49:20.821Z,10.76
2023-02-11T12:50:21.066Z,10.77
2023-02-11T12:51:21.295Z,10.81
2023-02-11T12:52:21.605Z,10.78
2023-02-11T12:53:21.876Z,10.76
2023-02-11T12:54:22.196Z,10.73
2023-02-11T12:55:22.409Z,10.68
2023-02-11T12:56:22.730Z,10.68
2023-02-11T12:57:23.003Z,10.66
2023-02-11T12:58:29.611Z,10.66
2023-02-11T12:59:24.625Z,10.59
2023-02-11T13:00:23.907Z,10.58
2023-02-11T13:01:24.262Z,10.55
2023-02-11T13:02:24.544Z,10.55
2023-02-11T13:03:24.829Z,10.51
2023-02-11T13:04:25.159Z,10.42
2023-02-11T13:05:25.443Z,10.36
2023-02-11T13:06:25.749Z,10.36
2023-02-11T13:07:25.993Z,10.32
2023-02-11T13:08:26.304Z,10.25
2023-02-11T13:09:26.587Z,10.18
2023-02-11T13:10:26.807Z,10.14
2023-02-11T13:11:27.063Z,10.12
2023-02-11T13:12:27.350Z,10.06
2023-02-11T13:13:27.631Z,10.03
2023-02-11T13:14:27.941Z,9.97
2023-02-11T13:15:28.169Z,9.94
2023-02-11T13:16:28.481Z,9.93
2023-02-11T13:17:28.711Z,9.89
2023-02-11T13:18:29.006Z,9.89